Time;durP1;ratioP1;P1;durP2;ratioP2;P2;SDS_P1;SDS_P2;PMS_P1;PMS_P2;Temp;Humidity;BMP_temperature;BMP_pressure;BME280_temperature;BME280_humidity;BME280_pressure;Samples;Min_cycle;Max_cycle;Signal;HPM_P1;HPM_P2
2021/01/12 00:01:48;;;;;;;5.18;3.40;;;25.00;93.60;;;;;;6325583;22;20068;-93
2021/01/12 00:04:29;;;;;;;4.85;3.25;;;25.00;93.70;;;;;;6298885;22;20001;-91
2021/01/12 00:07:05;;;;;;;4.35;3.50;;;25.00;93.60;;;;;;6299005;22;20056;-92
2021/01/12 00:09:41;;;;;;;4.45;2.92;;;24.90;93.80;;;;;;6296098;22;19995;-89
2021/01/12 00:12:39;;;;;;;5.93;3.17;;;24.90;93.70;;;;;;6297373;22;20010;-93
2021/01/12 00:15:18;;;;;;;6.32;3.33;;;24.90;93.60;;;;;;6323238;22;19995;-90
2021/01/12 00:17:52;;;;;;;6.00;3.10;;;24.80;93.60;;;;;;6326931;22;20014;-91
2021/01/12 00:24:18;;;;;;;4.15;2.58;;;24.80;93.50;;;;;;6262449;23;20075;-92
2021/01/12 01:07:33;;;;;;;7.20;2.17;;;24.40;93.10;;;;;;6246715;22;20020;-88
2021/01/12 01:10:23;;;;;;;6.28;2.10;;;24.30;93.10;;;;;;6215307;22;20067;-90
2021/01/12 01:13:46;;;;;;;5.32;2.72;;;24.30;93.20;;;;;;6324870;22;20002;-92
2021/01/12 01:16:36;;;;;;;3.67;2.50;;;24.20;93.10;;;;;;6117119;23;19998;-90
2021/01/12 01:19:32;;;;;;;5.38;2.17;;;24.20;93.40;;;;;;6288707;22;20047;-88
2021/01/12 01:22:23;;;;;;;6.85;2.50;;;24.10;93.40;;;;;;6264638;22;19995;-89
2021/01/12 01:24:52;;;;;;;7.15;2.30;;;24.10;93.50;;;;;;6266902;22;20114;-88
2021/01/12 01:27:26;;;;;;;5.78;2.10;;;24.10;93.40;;;;;;6287963;22;20091;-89
2021/01/12 01:30:10;;;;;;;4.45;2.22;;;24.10;93.40;;;;;;6226923;23;20000;-88
2021/01/12 01:32:44;;;;;;;4.22;2.42;;;24.00;93.70;;;;;;6225334;23;20000;-88
2021/01/12 01:35:44;;;;;;;4.88;2.45;;;24.00;93.70;;;;;;6201052;23;20033;-89
2021/01/12 01:38:17;;;;;;;5.57;2.45;;;24.00;93.40;;;;;;6153966;23;20000;-89
2021/01/12 01:40:49;;;;;;;2.92;2.20;;;23.90;93.50;;;;;;6204398;23;20001;-90
2021/01/12 01:43:26;;;;;;;6.07;3.00;;;23.90;93.40;;;;;;6180724;23;20072;-91
2021/01/12 01:45:55;;;;;;;2.75;2.22;;;23.90;93.50;;;;;;6205293;23;20037;-90
2021/01/12 01:48:34;;;;;;;4.65;2.20;;;23.80;93.50;;;;;;6204247;23;20032;-88
2021/01/12 01:51:17;;;;;;;3.67;2.42;;;23.80;93.60;;;;;;6202614;23;20205;-89
2021/01/12 01:53:49;;;;;;;4.55;2.10;;;23.70;93.70;;;;;;6180046;23;20072;-89
2021/01/12 01:56:16;;;;;;;5.97;2.27;;;23.70;93.80;;;;;;6202522;23;20339;-90
2021/01/12 01:58:45;;;;;;;4.35;2.42;;;23.60;93.90;;;;;;6201479;23;20016;-87
2021/01/12 02:01:37;;;;;;;9.50;2.45;;;23.60;93.80;;;;;;6265094;22;19996;-92
2021/01/12 02:04:30;;;;;;;4.55;2.58;;;23.60;93.80;;;;;;6306806;22;19999;-92
2021/01/12 02:07:04;;;;;;;4.85;2.28;;;23.60;93.70;;;;;;6350730;22;20005;-93
2021/01/12 02:10:27;;;;;;;3.47;2.25;;;23.60;93.40;;;;;;6301330;22;20007;-92
2021/01/12 02:13:12;;;;;;;;;;;23.60;93.50;;;;;;6270420;22;20018;-91
2021/01/12 02:19:29;;;;;;;4.68;2.00;;;23.60;93.20;;;;;;6221459;22;20061;-91
2021/01/12 02:22:21;;;;;;;4.70;2.30;;;23.60;93.10;;;;;;6268051;22;20015;-91
2021/01/12 02:24:58;;;;;;;3.67;1.83;;;23.50;93.30;;;;;;6224781;22;19999;-92
2021/01/12 02:28:35;;;;;;;3.05;2.10;;;23.50;93.40;;;;;;6294048;22;20048;-94
2021/01/12 02:31:05;;;;;;;4.82;2.00;;;23.50;93.80;;;;;;6206753;23;19997;-92
2021/01/12 02:34:24;;;;;;;3.72;1.95;;;23.50;93.50;;;;;;6197724;23;20012;-93
2021/01/12 02:37:08;;;;;;;4.72;1.95;;;23.50;93.40;;;;;;6193938;23;19989;-91
2021/01/12 02:39:45;;;;;;;4.93;2.10;;;23.40;93.40;;;;;;6176262;23;20000;-90
2021/01/12 02:42:58;;;;;;;7.22;2.13;;;23.40;93.50;;;;;;6207065;23;20001;-91
2021/01/12 02:45:28;;;;;;;9.10;2.13;;;23.30;93.50;;;;;;6148283;23;20002;-92
2021/01/12 02:48:55;;;;;;;9.68;2.45;;;23.40;93.30;;;;;;6244679;22;20043;-90
2021/01/12 02:51:22;;;;;;;4.47;2.47;;;23.40;93.50;;;;;;6215108;23;20036;-91
2021/01/12 02:54:26;;;;;;;;;;;;;;;;;;;;;
2021/01/12 02:57:35;;;;;;;7.82;3.00;;;23.40;93.20;;;;;;6297517;22;20000;-88
2021/01/12 03:00:20;;;;;;;6.80;2.78;;;23.40;93.30;;;;;;6298114;22;20000;-91
2021/01/12 03:03:08;;;;;;;8.18;3.67;;;23.40;93.10;;;;;;6267801;22;20045;-91
2021/01/12 03:05:38;;;;;;;4.35;2.70;;;23.40;93.30;;;;;;6270151;22;20092;-92
2021/01/12 03:08:11;;;;;;;5.57;2.40;;;23.30;93.30;;;;;;6266913;22;20019;-92
2021/01/12 03:10:48;;;;;;;5.47;2.42;;;23.30;93.10;;;;;;6292745;22;19999;-90
2021/01/12 03:13:37;;;;;;;4.38;2.85;;;23.40;93.30;;;;;;6267908;22;19996;-92
2021/01/12 03:16:11;;;;;;;6.05;2.47;;;23.40;93.30;;;;;;6215705;23;20044;-91
2021/01/12 03:19:09;;;;;;;4.72;2.22;;;23.30;93.30;;;;;;6237317;23;20003;-90
2021/01/12 03:22:00;;;;;;;4.70;2.40;;;23.30;93.50;;;;;;6262205;23;20000;-93
2021/01/12 03:24:46;;;;;;;2.40;1.80;;;23.20;93.80;;;;;;6245428;23;20016;-91
2021/01/12 03:27:13;;;;;;;4.53;1.70;;;23.20;93.40;;;;;;6280241;22;20203;-90
2021/01/12 03:29:46;;;;;;;7.55;1.90;;;23.20;92.80;;;;;;6292330;22;19992;-93
2021/01/12 03:32:21;;;;;;;3.45;1.63;;;23.30;92.60;;;;;;6319254;22;19998;-92
2021/01/12 03:35:00;;;;;;;4.07;1.42;;;23.40;92.20;;;;;;6318638;22;20012;-92
2021/01/12 03:37:30;;;;;;;3.10;1.33;;;23.30;92.40;;;;;;6292498;22;19992;-90
2021/01/12 03:40:55;;;;;;;;;;;;;;;;;;;;;
2021/01/12 03:43:32;;;;;;;8.73;1.80;;;23.40;92.00;;;;;;6319844;22;20002;-90
2021/01/12 03:46:00;;;;;;;3.50;2.17;;;23.40;92.10;;;;;;6293524;22;20005;-91
2021/01/12 03:48:31;;;;;;;7.05;3.60;;;23.30;92.00;;;;;;6264020;22;20073;-90
2021/01/12 03:51:00;;;;;;;11.10;5.47;;;23.30;92.80;;;;;;6290149;22;20044;-91
2021/01/12 03:53:27;;;;;;;7.80;4.20;;;23.20;92.20;;;;;;6259492;22;20064;-91
2021/01/12 03:55:57;;;;;;;11.07;3.72;;;23.10;92.20;;;;;;6265244;22;19992;-92
2021/01/12 03:58:27;;;;;;;6.68;4.65;;;23.10;92.00;;;;;;6264279;22;20011;-91
2021/01/12 04:01:10;;;;;;;5.97;2.47;;;23.10;92.00;;;;;;6264914;22;19994;-90
2021/01/12 04:03:48;;;;;;;4.82;2.17;;;23.20;92.00;;;;;;6286650;22;19999;-91
2021/01/12 04:06:20;;;;;;;4.78;2.15;;;23.20;92.00;;;;;;6253757;22;20000;-91
2021/01/12 04:08:55;;;;;;;2.95;1.90;;;23.10;92.00;;;;;;6264012;22;20003;-90
2021/01/12 04:11:36;;;;;;;3.92;1.50;;;23.10;91.60;;;;;;6290895;22;20057;-90
2021/01/12 04:14:03;;;;;;;4.10;1.58;;;23.10;91.70;;;;;;6264667;22;20003;-89
2021/01/12 04:16:36;;;;;;;3.40;1.40;;;23.10;91.70;;;;;;6240312;22;19996;-91
2021/01/12 04:19:41;;;;;;;3.58;1.60;;;23.10;91.40;;;;;;6290899;22;20008;-91
2021/01/12 04:22:17;;;;;;;2.55;1.35;;;23.10;91.50;;;;;;6276814;22;20053;-91
2021/01/12 04:24:45;;;;;;;4.80;1.20;;;23.10;91.70;;;;;;6295114;22;20284;-92
2021/01/12 04:27:15;;;;;;;4.57;1.38;;;23.10;91.50;;;;;;6296824;22;20057;-92
2021/01/12 04:29:42;;;;;;;2.75;1.25;;;23.10;91.50;;;;;;6297865;22;20017;-89
2021/01/12 04:32:12;;;;;;;5.00;1.13;;;23.10;91.50;;;;;;6299518;22;20003;-92
2021/01/12 04:34:47;;;;;;;3.72;1.20;;;23.20;91.40;;;;;;6294469;22;19995;-92
2021/01/12 04:37:17;;;;;;;4.45;1.30;;;23.10;91.20;;;;;;6297500;22;20000;-91
2021/01/12 04:40:00;;;;;;;5.13;1.83;;;23.20;91.30;;;;;;6323451;22;20228;-93
2021/01/12 04:42:33;;;;;;;5.15;1.33;;;23.20;91.30;;;;;;6293912;22;19991;-92
2021/01/12 04:45:03;;;;;;;3.55;1.27;;;23.20;91.10;;;;;;6293318;22;19995;-91
2021/01/12 04:47:30;;;;;;;2.28;1.50;;;23.20;91.40;;;;;;6316258;22;20344;-90
2021/01/12 04:50:06;;;;;;;5.60;1.48;;;23.20;91.30;;;;;;6324561;22;20002;-91
2021/01/12 04:52:50;;;;;;;3.40;1.20;;;23.10;91.30;;;;;;6324411;22;19987;-90
2021/01/12 04:55:18;;;;;;;6.03;1.42;;;23.10;91.10;;;;;;6323968;22;20109;-90
2021/01/12 04:57:45;;;;;;;2.90;1.10;;;23.10;91.30;;;;;;6324478;22;19997;-93
2021/01/12 05:00:24;;;;;;;2.88;1.20;;;23.10;91.20;;;;;;6325578;22;20040;-92
2021/01/12 05:03:09;;;;;;;4.55;1.33;;;23.10;91.30;;;;;;6325075;22;20007;-90
2021/01/12 05:06:02;;;;;;;3.92;1.45;;;23.10;91.20;;;;;;6325107;22;20207;-90
2021/01/12 05:08:29;;;;;;;4.53;1.13;;;23.00;91.40;;;;;;6350578;22;19990;-90
2021/01/12 05:11:03;;;;;;;2.53;1.38;;;23.00;91.30;;;;;;6299298;22;20021;-90
2021/01/12 05:13:32;;;;;;;3.55;1.40;;;23.00;91.50;;;;;;6325224;22;19999;-91
2021/01/12 05:16:08;;;;;;;3.17;1.23;;;23.00;91.80;;;;;;6324291;22;20139;-89
2021/01/12 05:18:44;;;;;;;7.75;1.60;;;23.00;91.90;;;;;;6326569;22;20062;-91
2021/01/12 05:21:30;;;;;;;2.35;1.15;;;23.00;91.70;;;;;;6356492;22;20002;-91
2021/01/12 05:24:06;;;;;;;1.95;1.20;;;23.00;91.70;;;;;;6327054;22;19991;-92
2021/01/12 05:26:36;;;;;;;3.95;1.50;;;22.90;91.50;;;;;;6326314;22;20003;-90
2021/01/12 05:29:05;;;;;;;2.63;1.20;;;22.90;91.40;;;;;;6327290;22;19994;-89
2021/01/12 05:31:35;;;;;;;2.08;1.40;;;22.90;91.20;;;;;;6326490;22;20018;-92
2021/01/12 05:34:26;;;;;;;5.20;1.40;;;23.00;90.90;;;;;;6325427;22;20066;-92
2021/01/12 05:36:56;;;;;;;3.83;1.30;;;22.90;90.90;;;;;;6323431;22;19991;-90
2021/01/12 05:39:31;;;;;;;4.45;1.25;;;22.90;90.90;;;;;;6326785;22;19995;-92
2021/01/12 05:42:06;;;;;;;3.10;1.10;;;22.90;91.10;;;;;;6325250;22;19995;-90
2021/01/12 05:44:37;;;;;;;2.33;1.33;;;22.90;91.00;;;;;;6326518;22;20129;-89
2021/01/12 05:47:04;;;;;;;3.30;1.35;;;22.90;91.10;;;;;;6323426;22;20038;-90
2021/01/12 05:49:31;;;;;;;2.67;1.30;;;22.80;91.10;;;;;;6324482;22;20005;-90
2021/01/12 05:51:57;;;;;;;2.80;1.42;;;22.90;91.00;;;;;;6325703;22;20062;-89
2021/01/12 05:54:27;;;;;;;3.33;1.27;;;22.90;91.10;;;;;;6324155;22;19998;-92
2021/01/12 05:57:07;;;;;;;5.68;1.30;;;22.90;90.90;;;;;;6325280;22;20014;-92
2021/01/12 05:59:39;;;;;;;3.58;0.98;;;22.90;91.00;;;;;;6324750;22;19990;-93
2021/01/12 06:02:25;;;;;;;1.40;1.10;;;22.90;91.20;;;;;;6326190;22;20016;-92
2021/01/12 06:05:04;;;;;;;3.70;1.23;;;22.90;91.10;;;;;;6352696;22;20058;-91
2021/01/12 06:07:31;;;;;;;5.10;1.75;;;22.80;91.00;;;;;;6324697;22;20040;-90
2021/01/12 06:10:00;;;;;;;3.80;1.08;;;22.80;91.00;;;;;;6324294;22;20006;-92
2021/01/12 06:12:27;;;;;;;2.17;1.27;;;22.80;90.80;;;;;;6324000;22;20026;-90
2021/01/12 06:15:01;;;;;;;3.13;1.40;;;22.80;90.80;;;;;;6323316;22;20059;-90
2021/01/12 06:17:33;;;;;;;3.50;1.50;;;22.80;91.00;;;;;;6325009;22;20109;-92
2021/01/12 06:20:06;;;;;;;3.23;1.10;;;22.80;91.00;;;;;;6324093;22;19994;-92
2021/01/12 06:22:42;;;;;;;2.50;1.27;;;22.70;91.00;;;;;;6325297;22;20225;-91
2021/01/12 06:25:12;;;;;;;3.45;1.20;;;22.70;90.90;;;;;;6324811;22;19999;-92
2021/01/12 06:27:39;;;;;;;3.47;1.27;;;22.70;90.90;;;;;;6324846;22;19999;-92
2021/01/12 06:30:11;;;;;;;2.05;1.13;;;22.70;90.90;;;;;;6324716;22;19999;-92
2021/01/12 06:32:38;;;;;;;2.63;1.20;;;22.80;90.60;;;;;;6324923;22;19999;-88
2021/01/12 06:35:08;;;;;;;2.30;1.17;;;22.70;90.50;;;;;;6324572;22;19994;-92
2021/01/12 06:37:40;;;;;;;2.78;1.05;;;22.80;90.50;;;;;;6325217;22;20029;-91
2021/01/12 06:40:11;;;;;;;2.55;0.95;;;22.80;90.60;;;;;;6324484;22;19995;-91
2021/01/12 06:43:09;;;;;;;2.60;1.10;;;22.80;89.60;;;;;;6324108;22;20076;-92
2021/01/12 06:45:38;;;;;;;3.72;1.30;;;22.90;90.10;;;;;;6322622;22;19998;-92
2021/01/12 06:48:05;;;;;;;2.40;1.08;;;23.00;90.00;;;;;;6298086;22;19999;-91
2021/01/12 06:50:33;;;;;;;3.75;1.08;;;23.00;89.70;;;;;;6350782;22;19998;-92
2021/01/12 06:53:15;;;;;;;2.60;1.08;;;22.90;90.20;;;;;;6350890;22;20036;-92
2021/01/12 06:55:42;;;;;;;2.05;1.20;;;22.90;90.30;;;;;;6352344;22;19995;-90
2021/01/12 06:58:10;;;;;;;5.28;1.50;;;22.80;90.50;;;;;;6323589;22;20222;-90
2021/01/12 07:00:58;;;;;;;3.85;1.58;;;22.80;90.60;;;;;;6351714;22;20163;-91
2021/01/12 07:03:32;;;;;;;2.53;1.13;;;22.80;90.60;;;;;;6322772;22;19998;-92
2021/01/12 07:06:03;;;;;;;2.92;1.23;;;22.80;90.80;;;;;;6311236;22;20003;-91
2021/01/12 07:08:40;;;;;;;2.30;1.02;;;22.80;91.00;;;;;;6322735;22;20029;-91
2021/01/12 07:11:07;;;;;;;1.48;1.02;;;22.80;90.80;;;;;;6322453;22;20149;-91
2021/01/12 07:13:37;;;;;;;5.05;1.50;;;22.70;90.80;;;;;;6350077;22;20001;-91
2021/01/12 07:16:14;;;;;;;2.85;1.65;;;22.70;90.80;;;;;;6322942;22;20006;-91
2021/01/12 07:18:44;;;;;;;4.40;1.17;;;22.80;90.10;;;;;;6296442;22;20002;-92
2021/01/12 07:21:19;;;;;;;4.47;1.27;;;22.90;90.10;;;;;;6323055;22;20025;-91
2021/01/12 07:24:21;;;;;;;3.50;1.10;;;23.00;90.10;;;;;;6323777;22;20176;-90
2021/01/12 07:26:49;;;;;;;4.05;1.35;;;22.90;90.20;;;;;;6351474;22;19990;-91
2021/01/12 07:29:16;;;;;;;3.25;1.45;;;22.90;90.10;;;;;;6298249;22;20026;-90
2021/01/12 07:31:43;;;;;;;3.92;1.30;;;22.90;90.00;;;;;;6350368;22;20002;-91
2021/01/12 07:34:17;;;;;;;2.58;1.48;;;22.90;90.30;;;;;;6322776;22;20009;-89
2021/01/12 07:36:46;;;;;;;2.85;1.40;;;22.90;90.60;;;;;;6341191;22;19998;-92
2021/01/12 07:39:15;;;;;;;3.42;1.30;;;22.80;90.50;;;;;;6322363;22;20003;-91
2021/01/12 07:41:42;;;;;;;2.75;1.05;;;22.80;90.70;;;;;;6318413;22;19999;-92
2021/01/12 07:44:08;;;;;;;8.15;1.50;;;22.80;90.60;;;;;;6323522;22;20002;-91
2021/01/12 07:46:36;;;;;;;4.35;1.42;;;22.80;90.70;;;;;;6312444;22;20015;-91
2021/01/12 07:49:17;;;;;;;3.60;1.15;;;22.80;90.70;;;;;;6293648;22;20014;-90
2021/01/12 07:51:45;;;;;;;1.90;1.25;;;22.70;90.70;;;;;;6319821;22;19991;-91
2021/01/12 07:54:52;;;;;;;5.18;1.63;;;22.70;90.80;;;;;;6318696;22;20068;-92
2021/01/12 07:57:19;;;;;;;7.07;1.40;;;22.70;90.80;;;;;;6319328;22;19983;-92
2021/01/12 07:59:48;;;;;;;2.47;1.20;;;22.60;90.60;;;;;;6293585;22;19999;-89
2021/01/12 08:02:16;;;;;;;2.00;1.20;;;22.70;90.70;;;;;;6293358;22;19987;-90
2021/01/12 08:04:43;;;;;;;4.30;1.48;;;22.70;90.60;;;;;;6293664;22;20010;-92
2021/01/12 08:07:20;;;;;;;2.45;1.30;;;22.70;90.70;;;;;;6294264;22;20062;-92
2021/01/12 08:10:00;;;;;;;2.72;1.27;;;22.70;90.90;;;;;;6295242;22;20007;-90
2021/01/12 08:12:27;;;;;;;2.47;1.05;;;22.60;90.70;;;;;;6294381;22;20003;-91
2021/01/12 08:15:07;;;;;;;5.82;1.33;;;22.70;90.80;;;;;;6293894;22;20045;-89
2021/01/12 08:17:33;;;;;;;3.78;1.30;;;22.60;90.90;;;;;;6294112;22;19991;-90
2021/01/12 08:20:04;;;;;;;4.18;1.40;;;22.60;90.80;;;;;;6294321;22;19995;-88
2021/01/12 08:22:31;;;;;;;4.88;1.20;;;22.60;90.90;;;;;;6295538;22;20255;-91
2021/01/12 08:25:05;;;;;;;2.92;1.30;;;22.60;90.80;;;;;;6294124;22;20003;-91
2021/01/12 08:27:32;;;;;;;3.28;1.20;;;22.50;90.80;;;;;;6294194;22;20002;-90
2021/01/12 08:30:06;;;;;;;3.50;1.17;;;22.50;90.90;;;;;;6295926;22;20019;-92
2021/01/12 08:32:44;;;;;;;2.97;0.93;;;22.60;91.10;;;;;;6270347;22;20235;-91
2021/01/12 08:35:16;;;;;;;3.63;1.20;;;22.60;90.70;;;;;;6301711;22;19999;-91
2021/01/12 08:37:45;;;;;;;4.13;1.20;;;22.60;90.90;;;;;;6293591;22;19998;-90
2021/01/12 08:40:14;;;;;;;4.70;1.50;;;22.60;91.10;;;;;;6318902;22;19995;-90
2021/01/12 08:42:41;;;;;;;5.18;1.30;;;22.50;91.10;;;;;;6320049;22;19987;-89
2021/01/12 08:45:16;;;;;;;5.82;1.30;;;22.60;91.30;;;;;;6294311;22;20133;-91
2021/01/12 08:47:47;;;;;;;2.85;1.42;;;22.50;91.20;;;;;;6318428;22;20495;-91
2021/01/12 08:50:14;;;;;;;2.47;1.50;;;22.50;91.40;;;;;;6315714;22;20227;-91
2021/01/12 08:52:48;;;;;;;3.08;1.13;;;22.40;91.40;;;;;;6292211;22;20340;-91
2021/01/12 08:55:20;;;;;;;7.65;1.83;;;22.50;91.50;;;;;;6293112;22;20288;-90
2021/01/12 08:57:57;;;;;;;2.45;1.17;;;22.40;91.40;;;;;;6318904;22;20109;-91
2021/01/12 09:01:00;;;;;;;2.70;1.25;;;22.40;91.50;;;;;;6294652;22;20187;-91
2021/01/12 09:03:27;;;;;;;2.90;1.30;;;22.40;91.40;;;;;;6293497;22;19999;-92
2021/01/12 09:05:54;;;;;;;5.13;1.20;;;22.30;91.60;;;;;;6293292;22;20241;-90
2021/01/12 09:08:22;;;;;;;3.17;1.10;;;22.20;91.80;;;;;;6297790;22;20066;-91
2021/01/12 09:10:50;;;;;;;2.45;1.42;;;22.20;92.00;;;;;;6292359;22;20011;-90
2021/01/12 09:13:17;;;;;;;3.20;1.23;;;22.20;91.80;;;;;;6292592;22;19997;-91
2021/01/12 09:16:04;;;;;;;3.83;1.40;;;22.20;91.80;;;;;;6293385;22;20006;-89
2021/01/12 09:18:36;;;;;;;3.33;1.23;;;22.20;91.80;;;;;;6292020;22;19988;-90
2021/01/12 09:21:08;;;;;;;3.10;1.48;;;22.20;91.80;;;;;;6320026;22;19995;-89
2021/01/12 09:23:37;;;;;;;3.15;1.15;;;22.20;91.90;;;;;;6292695;22;20101;-90
2021/01/12 09:26:05;;;;;;;1.83;1.20;;;22.20;92.20;;;;;;6267361;22;20201;-90
2021/01/12 09:28:35;;;;;;;2.45;1.40;;;22.10;92.40;;;;;;6292737;22;20272;-90
2021/01/12 09:31:13;;;;;;;2.13;1.40;;;22.10;92.20;;;;;;6292748;22;20283;-90
2021/01/12 09:33:51;;;;;;;4.95;1.67;;;22.10;92.50;;;;;;6292251;22;20041;-90
2021/01/12 09:36:20;;;;;;;4.18;1.20;;;22.00;92.70;;;;;;6292432;22;20017;-90
2021/01/12 09:38:49;;;;;;;5.50;1.42;;;22.00;92.60;;;;;;6292133;22;20012;-91
2021/01/12 09:41:21;;;;;;;3.50;1.50;;;22.00;92.80;;;;;;6292512;22;19987;-91
2021/01/12 09:43:48;;;;;;;;;;;22.00;92.70;;;;;;6319998;22;19999;-90
2021/01/12 09:46:17;;;;;;;3.50;1.52;;;22.00;92.60;;;;;;6322132;22;19933;-90
2021/01/12 09:48:44;;;;;;;4.25;1.63;;;22.00;92.50;;;;;;6317459;22;20007;-91
2021/01/12 09:51:13;;;;;;;2.40;1.60;;;22.00;92.60;;;;;;6317408;22;19995;-92
2021/01/12 09:53:49;;;;;;;2.88;1.50;;;22.00;92.40;;;;;;6292368;22;20297;-90
2021/01/12 09:56:18;;;;;;;2.88;1.42;;;22.10;92.30;;;;;;6318112;22;20051;-91
2021/01/12 09:58:45;;;;;;;4.10;1.35;;;22.10;92.30;;;;;;6317688;22;19999;-91
2021/01/12 10:01:14;;;;;;;4.20;1.50;;;22.20;92.30;;;;;;6317554;22;20032;-90
2021/01/12 10:03:40;;;;;;;2.45;1.30;;;22.20;92.20;;;;;;6316708;22;19995;-90
2021/01/12 10:06:07;;;;;;;3.00;1.50;;;22.20;92.20;;;;;;6318849;22;20033;-91
2021/01/12 10:08:34;;;;;;;5.35;1.88;;;22.20;92.10;;;;;;6318170;22;20282;-90
2021/01/12 10:11:03;;;;;;;3.08;1.30;;;22.20;92.20;;;;;;6317944;22;20193;-91
2021/01/12 10:13:30;;;;;;;2.50;1.67;;;22.10;92.10;;;;;;6317960;22;20341;-92
2021/01/12 10:15:58;;;;;;;2.33;1.27;;;22.10;92.20;;;;;;6292006;22;20005;-90
2021/01/12 10:18:25;;;;;;;4.40;1.50;;;22.10;92.20;;;;;;6318338;22;20272;-91
2021/01/12 10:20:51;;;;;;;4.07;1.48;;;22.10;92.00;;;;;;6318299;22;20306;-92
2021/01/12 10:23:18;;;;;;;3.45;1.65;;;22.10;91.90;;;;;;6319108;22;20136;-90
2021/01/12 10:25:45;;;;;;;2.58;1.50;;;22.10;91.90;;;;;;6317732;22;20327;-91
2021/01/12 10:28:13;;;;;;;3.28;1.38;;;22.10;92.20;;;;;;6290347;22;20066;-90
2021/01/12 10:30:40;;;;;;;4.68;1.70;;;22.10;92.00;;;;;;6291234;22;20045;-91
2021/01/12 10:33:07;;;;;;;2.75;1.50;;;22.10;91.90;;;;;;6292828;22;20019;-90
2021/01/12 10:35:33;;;;;;;4.25;1.80;;;22.00;92.00;;;;;;6318040;22;19995;-91
2021/01/12 10:38:02;;;;;;;3.08;1.60;;;22.00;92.00;;;;;;6317139;22;20010;-91
2021/01/12 10:40:31;;;;;;;3.45;1.70;;;22.00;91.90;;;;;;6317802;22;20057;-90
2021/01/12 10:42:58;;;;;;;3.45;1.77;;;22.00;92.00;;;;;;6319159;22;19991;-91
2021/01/12 10:45:32;;;;;;;3.15;1.73;;;22.00;92.10;;;;;;6317306;22;20055;-91
2021/01/12 10:47:58;;;;;;;4.00;1.60;;;21.90;92.00;;;;;;6312871;22;20006;-91
2021/01/12 10:50:26;;;;;;;3.20;2.03;;;22.00;91.90;;;;;;6323113;22;20010;-91
2021/01/12 10:53:33;;;;;;;4.80;1.73;;;22.00;91.80;;;;;;6323139;22;19991;-91
2021/01/12 10:56:01;;;;;;;3.42;1.42;;;22.00;91.60;;;;;;6349297;22;20064;-90
2021/01/12 10:58:29;;;;;;;5.50;1.50;;;22.10;91.30;;;;;;6323052;22;19991;-91
2021/01/12 11:00:56;;;;;;;6.47;1.75;;;22.10;91.10;;;;;;6323211;22;19990;-89
2021/01/12 11:03:23;;;;;;;2.95;1.17;;;22.20;91.10;;;;;;6324377;22;20018;-89
2021/01/12 11:05:58;;;;;;;5.28;1.67;;;22.20;91.10;;;;;;6322935;22;20003;-89
2021/01/12 11:08:28;;;;;;;3.85;1.60;;;22.20;90.90;;;;;;6322505;22;19998;-91
2021/01/12 11:10:57;;;;;;;2.70;1.58;;;22.20;90.90;;;;;;6323114;22;20070;-89
2021/01/12 11:13:26;;;;;;;3.13;1.80;;;22.20;90.80;;;;;;6322562;22;19998;-90
2021/01/12 11:15:57;;;;;;;4.07;1.95;;;22.20;90.90;;;;;;6350142;22;19999;-90
2021/01/12 11:18:50;;;;;;;4.10;2.08;;;22.20;90.90;;;;;;6322564;22;19993;-90
2021/01/12 11:21:17;;;;;;;4.80;2.70;;;22.20;90.80;;;;;;6350183;22;20006;-90
2021/01/12 11:23:56;;;;;;;4.85;2.72;;;22.20;90.70;;;;;;6350654;22;19991;-90
2021/01/12 11:26:30;;;;;;;5.43;3.13;;;22.30;90.90;;;;;;6348609;22;20018;-89
2021/01/12 11:28:57;;;;;;;5.22;3.03;;;22.40;90.90;;;;;;6322458;22;19994;-90
2021/01/12 11:31:27;;;;;;;16.42;7.93;;;22.40;90.80;;;;;;6322366;22;20021;-90
2021/01/12 11:33:54;;;;;;;10.57;6.10;;;22.50;90.60;;;;;;6350023;22;20275;-89
2021/01/12 11:36:21;;;;;;;9.82;5.47;;;22.60;90.50;;;;;;6322883;22;20003;-87
2021/01/12 11:38:48;;;;;;;7.43;4.10;;;22.70;90.50;;;;;;6350346;22;20028;-89
2021/01/12 11:41:14;;;;;;;9.85;4.13;;;22.80;90.30;;;;;;6325034;22;19998;-89
2021/01/12 11:43:47;;;;;;;5.63;2.58;;;22.90;90.20;;;;;;6326296;22;19995;-90
2021/01/12 11:46:17;;;;;;;4.90;1.88;;;23.00;90.00;;;;;;6324116;22;20011;-88
2021/01/12 11:48:44;;;;;;;2.78;1.77;;;23.10;89.30;;;;;;6324654;22;20002;-89
2021/01/12 11:51:11;;;;;;;3.15;1.80;;;23.20;89.10;;;;;;6351780;22;19995;-89
2021/01/12 11:53:37;;;;;;;6.45;1.90;;;23.30;88.40;;;;;;6324519;22;20026;-87
2021/01/12 11:56:06;;;;;;;4.65;2.03;;;23.50;88.40;;;;;;6350493;22;20002;-90
2021/01/12 11:58:32;;;;;;;2.70;2.00;;;23.60;87.50;;;;;;6351733;22;20002;-88
2021/01/12 12:00:59;;;;;;;4.32;2.22;;;23.60;86.80;;;;;;6352086;22;19991;-89
2021/01/12 12:03:29;;;;;;;4.60;2.65;;;23.70;87.10;;;;;;6326211;22;20034;-89
2021/01/12 12:05:55;;;;;;;4.63;2.30;;;23.70;87.30;;;;;;6325474;22;20060;-90
2021/01/12 12:08:22;;;;;;;3.30;1.98;;;23.70;86.50;;;;;;6352665;22;19999;-90
2021/01/12 12:11:02;;;;;;;3.95;1.90;;;23.80;86.10;;;;;;6324556;22;20017;-92
2021/01/12 12:13:29;;;;;;;4.30;1.30;;;23.80;86.20;;;;;;6325209;22;20044;-90
2021/01/12 12:15:55;;;;;;;4.10;2.30;;;23.90;86.50;;;;;;6352978;22;19987;-90
2021/01/12 12:18:22;;;;;;;6.38;2.58;;;24.00;86.20;;;;;;6350937;22;19995;-88
2021/01/12 12:20:49;;;;;;;8.43;2.13;;;24.20;86.70;;;;;;6352651;22;20271;-88
2021/01/12 12:23:16;;;;;;;3.78;2.03;;;24.30;85.40;;;;;;6325035;22;20003;-91
2021/01/12 12:25:42;;;;;;;5.47;1.70;;;24.30;85.20;;;;;;6325351;22;20271;-88
2021/01/12 12:28:19;;;;;;;3.58;1.60;;;24.30;84.20;;;;;;6326612;22;20002;-89
2021/01/12 12:30:46;;;;;;;2.67;1.58;;;24.40;85.10;;;;;;6300622;22;20009;-87
2021/01/12 12:33:13;;;;;;;5.07;1.80;;;24.50;85.40;;;;;;6352951;22;19998;-90
2021/01/12 12:35:45;;;;;;;3.88;2.00;;;24.60;84.70;;;;;;6328909;22;20013;-89
2021/01/12 12:38:27;;;;;;;4.32;2.15;;;24.80;85.40;;;;;;6354729;22;20050;-90
2021/01/12 12:41:06;;;;;;;2.90;1.45;;;24.90;84.20;;;;;;6353109;22;20032;-89
2021/01/12 12:43:33;;;;;;;4.03;1.92;;;25.00;83.60;;;;;;6326287;22;20025;-89
2021/01/12 12:46:03;;;;;;;5.18;1.70;;;25.20;85.70;;;;;;6350650;22;19995;-89
2021/01/12 12:48:33;;;;;;;3.33;1.67;;;25.50;83.90;;;;;;6320375;22;20153;-89
2021/01/12 12:51:00;;;;;;;4.45;1.90;;;25.60;82.40;;;;;;6291981;22;20029;-91
2021/01/12 12:53:29;;;;;;;3.30;1.42;;;25.70;81.70;;;;;;6292209;22;20164;-90
2021/01/12 12:55:56;;;;;;;5.47;1.90;;;26.00;82.60;;;;;;6320705;22;19995;-89
2021/01/12 12:58:26;;;;;;;5.00;1.38;;;26.30;81.60;;;;;;6294826;22;20013;-88
2021/01/12 13:00:53;;;;;;;2.80;1.17;;;26.50;80.30;;;;;;6292644;22;20272;-90
2021/01/12 13:03:53;;;;;;;4.47;1.52;;;26.70;78.60;;;;;;6322297;22;20041;-91
2021/01/12 13:06:23;;;;;;;3.25;1.13;;;26.90;76.50;;;;;;6293731;22;19999;-93
2021/01/12 13:08:52;;;;;;;4.13;1.35;;;27.10;75.70;;;;;;6294552;22;20002;-91
2021/01/12 13:11:51;;;;;;;3.08;1.50;;;27.30;74.50;;;;;;6269421;22;20010;-90
2021/01/12 13:14:22;;;;;;;3.20;1.30;;;27.50;77.90;;;;;;6324150;22;19995;-91
2021/01/12 13:16:49;;;;;;;4.22;1.27;;;28.00;75.60;;;;;;6297060;22;20318;-91
2021/01/12 13:19:25;;;;;;;25.23;2.35;;;28.30;73.40;;;;;;6294505;22;20325;-92
2021/01/12 13:21:57;;;;;;;28.17;3.45;;;28.60;72.80;;;;;;6294626;22;20033;-92
2021/01/12 13:24:24;;;;;;;6.78;2.13;;;28.60;76.90;;;;;;6269762;22;20025;-91
2021/01/12 13:27:01;;;;;;;11.35;1.85;;;28.40;76.40;;;;;;6291927;22;20187;-90
2021/01/12 13:30:18;;;;;;;13.10;2.13;;;28.30;78.40;;;;;;6294945;22;20014;-92
2021/01/12 13:32:50;;;;;;;7.65;1.50;;;28.10;78.50;;;;;;6274112;22;19998;-91
2021/01/12 13:35:25;;;;;;;12.43;1.85;;;27.60;80.40;;;;;;6293003;22;20002;-92
2021/01/12 13:44:25;;;;;;;7.07;1.95;;;27.80;79.80;;;;;;6319769;22;20068;-90
2021/01/12 13:46:52;;;;;;;4.55;1.58;;;27.20;81.10;;;;;;6325768;22;20003;-89
2021/01/12 13:49:27;;;;;;;5.30;2.20;;;27.30;79.50;;;;;;6350441;22;20192;-89
2021/01/12 13:52:19;;;;;;;4.43;1.50;;;27.30;81.10;;;;;;6327554;22;19994;-92
2021/01/12 13:54:49;;;;;;;2.25;1.15;;;27.90;80.40;;;;;;6351847;22;20007;-90
2021/01/12 13:57:28;;;;;;;4.82;1.77;;;28.50;75.30;;;;;;6325250;22;19991;-92
2021/01/12 14:00:06;;;;;;;5.80;1.60;;;28.80;75.90;;;;;;6325206;22;20218;-90
2021/01/12 14:02:34;;;;;;;6.30;1.45;;;29.20;75.60;;;;;;6323754;22;20275;-92
2021/01/12 14:05:01;;;;;;;5.75;1.40;;;29.00;75.40;;;;;;6324897;22;20003;-93
2021/01/12 14:07:28;;;;;;;4.95;1.73;;;28.50;75.10;;;;;;6324050;22;20051;-89
2021/01/12 14:10:08;;;;;;;5.50;1.70;;;28.50;77.30;;;;;;6354816;22;20134;-90
2021/01/12 14:12:46;;;;;;;;;;;;;;;;;;;;;
2021/01/12 14:15:19;;;;;;;4.68;1.60;;;28.70;75.20;;;;;;6356236;22;20006;-90
2021/01/12 14:17:55;;;;;;;6.50;1.90;;;29.30;74.90;;;;;;6353771;22;20298;-89
2021/01/12 14:20:26;;;;;;;4.97;2.13;;;28.90;73.80;;;;;;6327749;22;20025;-92
2021/01/12 14:23:05;;;;;;;4.30;1.60;;;28.80;75.50;;;;;;6350847;22;20053;-91
2021/01/12 14:25:36;;;;;;;3.80;1.77;;;28.60;75.40;;;;;;6325826;22;19995;-92